sensor_id;sensor_type;location;lat;lon;timestamp;pressure;altitude;pressure_sealevel;temperature;humidity
33075;BME280;19433;51.292;6.868;2023-03-30T00:00:41;99570.28;;;11.54;92.13
33075;BME280;19433;51.292;6.868;2023-03-30T00:03:07;99576.09;;;11.64;91.77
33075;BME280;19433;51.292;6.868;2023-03-30T00:05:34;99559.72;;;11.81;90.10
33075;BME280;19433;51.292;6.868;2023-03-30T00:07:59;99554.56;;;11.67;91.31
33075;BME280;19433;51.292;6.868;2023-03-30T00:10:25;99531.97;;;11.88;89.39
33075;BME280;19433;51.292;6.868;2023-03-30T00:12:52;99545.19;;;11.68;90.26
33075;BME280;19433;51.292;6.868;2023-03-30T00:15:20;99552.59;;;11.55;91.10
33075;BME280;19433;51.292;6.868;2023-03-30T00:17:45;99549.31;;;11.47;91.96
33075;BME280;19433;51.292;6.868;2023-03-30T00:20:13;99536.75;;;11.62;90.67
33075;BME280;19433;51.292;6.868;2023-03-30T00:22:43;99528.16;;;11.52;90.72
33075;BME280;19433;51.292;6.868;2023-03-30T00:25:14;99515.19;;;11.53;90.68
33075;BME280;19433;51.292;6.868;2023-03-30T00:27:40;99531.72;;;11.59;90.63
33075;BME280;19433;51.292;6.868;2023-03-30T00:30:11;99522.22;;;11.67;89.82
33075;BME280;19433;51.292;6.868;2023-03-30T00:32:37;99507.06;;;11.70;88.83
33075;BME280;19433;51.292;6.868;2023-03-30T00:35:05;99526.25;;;11.53;90.12
33075;BME280;19433;51.292;6.868;2023-03-30T00:37:31;99517.00;;;11.29;90.69
33075;BME280;19433;51.292;6.868;2023-03-30T00:39:56;99530.22;;;11.27;91.50
33075;BME280;19433;51.292;6.868;2023-03-30T00:42:22;99539.00;;;11.54;89.96
33075;BME280;19433;51.292;6.868;2023-03-30T00:45:05;99510.34;;;11.48;89.44
33075;BME280;19433;51.292;6.868;2023-03-30T00:47:32;99527.06;;;11.42;89.53
33075;BME280;19433;51.292;6.868;2023-03-30T00:49:59;99525.19;;;11.54;88.83
33075;BME280;19433;51.292;6.868;2023-03-30T00:52:25;99521.72;;;11.58;88.17
33075;BME280;19433;51.292;6.868;2023-03-30T00:54:54;99509.19;;;11.56;87.93
33075;BME280;19433;51.292;6.868;2023-03-30T00:57:22;99499.69;;;11.63;87.37
33075;BME280;19433;51.292;6.868;2023-03-30T00:59:50;99502.22;;;11.65;87.11
33075;BME280;19433;51.292;6.868;2023-03-30T01:02:17;99497.53;;;11.66;86.58
33075;BME280;19433;51.292;6.868;2023-03-30T01:04:44;99479.69;;;11.50;87.24
33075;BME280;19433;51.292;6.868;2023-03-30T01:07:10;99479.34;;;11.76;85.27
33075;BME280;19433;51.292;6.868;2023-03-30T01:09:38;99481.06;;;12.01;83.37
33075;BME280;19433;51.292;6.868;2023-03-30T01:12:04;99479.47;;;11.93;83.93
33075;BME280;19433;51.292;6.868;2023-03-30T01:14:29;99479.84;;;11.96;83.62
33075;BME280;19433;51.292;6.868;2023-03-30T01:19:45;99483.75;;;12.19;81.90
33075;BME280;19433;51.292;6.868;2023-03-30T01:33:32;99500.63;;;12.41;80.81
33075;BME280;19433;51.292;6.868;2023-03-30T01:36:30;99493.91;;;12.37;80.97
33075;BME280;19433;51.292;6.868;2023-03-30T01:39:23;99492.69;;;12.44;80.17
33075;BME280;19433;51.292;6.868;2023-03-30T01:45:06;99502.91;;;12.55;79.28
33075;BME280;19433;51.292;6.868;2023-03-30T01:47:39;99489.19;;;12.49;79.28
33075;BME280;19433;51.292;6.868;2023-03-30T01:52:42;99494.97;;;12.47;78.09
33075;BME280;19433;51.292;6.868;2023-03-30T01:55:15;99498.81;;;12.58;78.00
33075;BME280;19433;51.292;6.868;2023-03-30T01:57:56;99488.81;;;12.80;76.55
33075;BME280;19433;51.292;6.868;2023-03-30T02:00:25;99488.09;;;12.73;76.82
33075;BME280;19433;51.292;6.868;2023-03-30T02:03:23;99487.56;;;12.88;75.79
33075;BME280;19433;51.292;6.868;2023-03-30T02:05:53;99486.63;;;12.94;75.40
33075;BME280;19433;51.292;6.868;2023-03-30T02:08:23;99484.47;;;12.73;76.58
33075;BME280;19433;51.292;6.868;2023-03-30T02:10:52;99477.69;;;12.92;75.32
33075;BME280;19433;51.292;6.868;2023-03-30T02:13:20;99472.78;;;12.82;76.12
33075;BME280;19433;51.292;6.868;2023-03-30T02:15:54;99471.06;;;12.93;75.23
33075;BME280;19433;51.292;6.868;2023-03-30T02:18:23;99468.91;;;12.95;74.72
33075;BME280;19433;51.292;6.868;2023-03-30T02:20:49;99467.91;;;13.01;74.17
33075;BME280;19433;51.292;6.868;2023-03-30T02:23:17;99467.44;;;12.92;75.25
33075;BME280;19433;51.292;6.868;2023-03-30T02:25:44;99458.84;;;13.06;74.03
33075;BME280;19433;51.292;6.868;2023-03-30T02:28:09;99467.41;;;13.16;73.73
33075;BME280;19433;51.292;6.868;2023-03-30T02:30:38;99450.81;;;12.92;74.46
33075;BME280;19433;51.292;6.868;2023-03-30T02:33:06;99448.19;;;12.74;75.35
33075;BME280;19433;51.292;6.868;2023-03-30T02:35:40;99439.88;;;12.74;75.26
33075;BME280;19433;51.292;6.868;2023-03-30T02:40:43;99416.06;;;12.38;76.74
33075;BME280;19433;51.292;6.868;2023-03-30T02:43:40;99416.69;;;12.52;76.68
33075;BME280;19433;51.292;6.868;2023-03-30T02:51:46;99428.13;;;12.44;77.61
33075;BME280;19433;51.292;6.868;2023-03-30T02:57:02;99416.19;;;12.43;77.19
33075;BME280;19433;51.292;6.868;2023-03-30T02:59:40;99424.38;;;12.38;77.71
33075;BME280;19433;51.292;6.868;2023-03-30T03:02:18;99421.84;;;12.60;76.65
33075;BME280;19433;51.292;6.868;2023-03-30T03:04:47;99413.72;;;12.70;76.13
33075;BME280;19433;51.292;6.868;2023-03-30T03:07:14;99410.00;;;12.76;76.05
33075;BME280;19433;51.292;6.868;2023-03-30T03:09:40;99398.88;;;12.88;74.96
33075;BME280;19433;51.292;6.868;2023-03-30T03:12:06;99405.31;;;13.05;74.39
33075;BME280;19433;51.292;6.868;2023-03-30T03:14:31;99409.84;;;12.94;74.73
33075;BME280;19433;51.292;6.868;2023-03-30T03:16:58;99405.84;;;12.90;74.96
33075;BME280;19433;51.292;6.868;2023-03-30T03:19:23;99413.94;;;12.92;75.01
33075;BME280;19433;51.292;6.868;2023-03-30T03:21:50;99423.53;;;13.13;74.10
33075;BME280;19433;51.292;6.868;2023-03-30T03:24:15;99424.38;;;13.01;75.12
33075;BME280;19433;51.292;6.868;2023-03-30T03:26:43;99402.84;;;12.92;74.90
33075;BME280;19433;51.292;6.868;2023-03-30T03:29:08;99395.97;;;12.94;74.42
33075;BME280;19433;51.292;6.868;2023-03-30T03:31:34;99406.06;;;13.00;74.80
33075;BME280;19433;51.292;6.868;2023-03-30T03:34:00;99413.88;;;13.03;75.29
33075;BME280;19433;51.292;6.868;2023-03-30T03:36:25;99412.97;;;12.98;75.79
33075;BME280;19433;51.292;6.868;2023-03-30T03:38:51;99415.47;;;12.99;75.31
33075;BME280;19433;51.292;6.868;2023-03-30T03:41:16;99412.22;;;13.02;75.29
33075;BME280;19433;51.292;6.868;2023-03-30T03:43:42;99419.06;;;13.00;75.72
33075;BME280;19433;51.292;6.868;2023-03-30T03:46:07;99393.63;;;13.03;75.43
33075;BME280;19433;51.292;6.868;2023-03-30T03:48:32;99400.84;;;13.16;74.70
33075;BME280;19433;51.292;6.868;2023-03-30T03:50:57;99380.03;;;13.01;74.97
33075;BME280;19433;51.292;6.868;2023-03-30T03:53:24;99385.31;;;13.03;74.56
33075;BME280;19433;51.292;6.868;2023-03-30T03:55:50;99386.66;;;13.00;75.07
33075;BME280;19433;51.292;6.868;2023-03-30T03:58:15;99390.13;;;13.08;74.73
33075;BME280;19433;51.292;6.868;2023-03-30T04:00:41;99391.56;;;13.10;75.18
33075;BME280;19433;51.292;6.868;2023-03-30T04:03:06;99386.63;;;13.12;74.54
33075;BME280;19433;51.292;6.868;2023-03-30T04:05:33;99390.50;;;13.11;75.14
33075;BME280;19433;51.292;6.868;2023-03-30T04:07:58;99385.16;;;13.21;74.74
33075;BME280;19433;51.292;6.868;2023-03-30T04:10:24;99365.53;;;13.40;73.60
33075;BME280;19433;51.292;6.868;2023-03-30T04:12:49;99358.47;;;13.49;73.09
33075;BME280;19433;51.292;6.868;2023-03-30T04:15:14;99346.88;;;13.52;72.79
33075;BME280;19433;51.292;6.868;2023-03-30T04:17:40;99349.25;;;13.43;73.03
33075;BME280;19433;51.292;6.868;2023-03-30T04:20:07;99361.53;;;13.19;74.11
33075;BME280;19433;51.292;6.868;2023-03-30T04:22:35;99357.44;;;13.21;74.73
33075;BME280;19433;51.292;6.868;2023-03-30T04:25:01;99358.66;;;13.14;75.54
33075;BME280;19433;51.292;6.868;2023-03-30T04:27:31;99345.03;;;13.12;75.39
33075;BME280;19433;51.292;6.868;2023-03-30T04:29:56;99354.19;;;13.13;75.64
33075;BME280;19433;51.292;6.868;2023-03-30T04:32:23;99345.00;;;13.24;74.88
33075;BME280;19433;51.292;6.868;2023-03-30T04:34:49;99348.53;;;13.08;75.74
33075;BME280;19433;51.292;6.868;2023-03-30T04:37:21;99353.13;;;13.02;76.29
33075;BME280;19433;51.292;6.868;2023-03-30T04:40:00;99358.00;;;12.95;76.95
33075;BME280;19433;51.292;6.868;2023-03-30T04:42:28;99348.91;;;13.11;75.93
33075;BME280;19433;51.292;6.868;2023-03-30T04:45:03;99366.94;;;13.25;75.01
33075;BME280;19433;51.292;6.868;2023-03-30T04:47:30;99349.69;;;13.23;74.96
33075;BME280;19433;51.292;6.868;2023-03-30T04:49:55;99357.72;;;13.36;74.25
33075;BME280;19433;51.292;6.868;2023-03-30T04:52:21;99370.75;;;13.53;73.54
33075;BME280;19433;51.292;6.868;2023-03-30T04:54:46;99369.50;;;13.60;72.95
33075;BME280;19433;51.292;6.868;2023-03-30T04:57:13;99374.53;;;13.63;72.38
33075;BME280;19433;51.292;6.868;2023-03-30T04:59:44;99372.63;;;13.64;72.84
33075;BME280;19433;51.292;6.868;2023-03-30T05:02:10;99372.72;;;13.69;72.77
33075;BME280;19433;51.292;6.868;2023-03-30T05:04:36;99382.38;;;13.66;72.72
33075;BME280;19433;51.292;6.868;2023-03-30T05:07:01;99377.66;;;13.67;72.91
33075;BME280;19433;51.292;6.868;2023-03-30T05:09:27;99362.84;;;13.61;73.04
33075;BME280;19433;51.292;6.868;2023-03-30T05:11:52;99369.44;;;13.72;73.26
33075;BME280;19433;51.292;6.868;2023-03-30T05:14:18;99368.50;;;13.66;73.13
33075;BME280;19433;51.292;6.868;2023-03-30T05:16:43;99368.00;;;13.69;73.33
33075;BME280;19433;51.292;6.868;2023-03-30T05:19:08;99374.41;;;13.70;73.59
33075;BME280;19433;51.292;6.868;2023-03-30T05:21:34;99369.59;;;13.65;73.56
33075;BME280;19433;51.292;6.868;2023-03-30T05:23:59;99365.38;;;13.63;73.72
33075;BME280;19433;51.292;6.868;2023-03-30T05:26:25;99371.03;;;13.68;73.83
33075;BME280;19433;51.292;6.868;2023-03-30T05:28:50;99374.78;;;13.62;75.10
33075;BME280;19433;51.292;6.868;2023-03-30T05:31:16;99382.81;;;13.58;74.69
33075;BME280;19433;51.292;6.868;2023-03-30T05:33:43;99375.56;;;13.57;74.61
33075;BME280;19433;51.292;6.868;2023-03-30T05:36:09;99384.31;;;13.66;74.68
33075;BME280;19433;51.292;6.868;2023-03-30T05:38:34;99386.50;;;13.64;74.81
33075;BME280;19433;51.292;6.868;2023-03-30T05:41:00;99385.31;;;13.60;74.83
33075;BME280;19433;51.292;6.868;2023-03-30T05:43:25;99390.28;;;13.58;74.84
33075;BME280;19433;51.292;6.868;2023-03-30T05:45:51;99386.97;;;13.61;74.76
33075;BME280;19433;51.292;6.868;2023-03-30T05:48:16;99365.88;;;13.60;74.68
33075;BME280;19433;51.292;6.868;2023-03-30T05:50:41;99383.72;;;13.64;74.62
33075;BME280;19433;51.292;6.868;2023-03-30T05:53:07;99388.06;;;13.60;74.81
33075;BME280;19433;51.292;6.868;2023-03-30T05:55:32;99391.28;;;13.68;74.91
33075;BME280;19433;51.292;6.868;2023-03-30T05:57:58;99391.28;;;13.68;74.72
33075;BME280;19433;51.292;6.868;2023-03-30T06:00:23;99404.16;;;13.58;75.45
33075;BME280;19433;51.292;6.868;2023-03-30T06:02:50;99401.38;;;13.58;75.67
33075;BME280;19433;51.292;6.868;2023-03-30T06:05:16;99405.91;;;13.64;75.34
33075;BME280;19433;51.292;6.868;2023-03-30T06:07:42;99393.97;;;13.63;74.90
33075;BME280;19433;51.292;6.868;2023-03-30T06:10:07;99406.75;;;13.64;75.00
33075;BME280;19433;51.292;6.868;2023-03-30T06:12:33;99398.25;;;13.54;75.06
33075;BME280;19433;51.292;6.868;2023-03-30T06:14:58;99401.63;;;13.56;75.21
33075;BME280;19433;51.292;6.868;2023-03-30T06:17:27;99407.44;;;13.55;75.17
33075;BME280;19433;51.292;6.868;2023-03-30T06:19:52;99400.31;;;13.59;75.24
33075;BME280;19433;51.292;6.868;2023-03-30T06:22:18;99391.03;;;13.53;75.03
33075;BME280;19433;51.292;6.868;2023-03-30T06:24:43;99400.31;;;13.59;75.24
33075;BME280;19433;51.292;6.868;2023-03-30T06:27:08;99412.25;;;13.59;75.16
33075;BME280;19433;51.292;6.868;2023-03-30T06:29:34;99402.41;;;13.68;74.75
33075;BME280;19433;51.292;6.868;2023-03-30T06:32:00;99395.91;;;13.63;75.06
33075;BME280;19433;51.292;6.868;2023-03-30T06:34:27;99394.47;;;13.60;74.98
33075;BME280;19433;51.292;6.868;2023-03-30T06:36:53;99386.09;;;13.72;74.55
33075;BME280;19433;51.292;6.868;2023-03-30T06:39:19;99398.28;;;13.88;74.12
33075;BME280;19433;51.292;6.868;2023-03-30T06:41:44;99398.94;;;14.12;73.35
33075;BME280;19433;51.292;6.868;2023-03-30T06:44:09;99403.81;;;14.21;72.82
33075;BME280;19433;51.292;6.868;2023-03-30T06:46:39;99403.41;;;14.13;73.00
33075;BME280;19433;51.292;6.868;2023-03-30T06:49:04;99394.59;;;13.99;72.24
33075;BME280;19433;51.292;6.868;2023-03-30T06:51:29;99408.47;;;13.99;72.35
33075;BME280;19433;51.292;6.868;2023-03-30T06:53:55;99419.47;;;14.11;71.67
33075;BME280;19433;51.292;6.868;2023-03-30T06:56:20;99415.72;;;14.00;72.03
33075;BME280;19433;51.292;6.868;2023-03-30T06:58:45;99418.31;;;13.90;72.23
33075;BME280;19433;51.292;6.868;2023-03-30T07:01:11;99407.22;;;13.90;71.82
33075;BME280;19433;51.292;6.868;2023-03-30T07:03:38;99418.88;;;13.92;72.17
33075;BME280;19433;51.292;6.868;2023-03-30T07:06:05;99416.03;;;13.87;72.19
33075;BME280;19433;51.292;6.868;2023-03-30T07:08:32;99417.78;;;13.93;72.03
33075;BME280;19433;51.292;6.868;2023-03-30T07:10:58;99417.47;;;13.89;72.56
33075;BME280;19433;51.292;6.868;2023-03-30T07:13:23;99413.53;;;14.02;72.16
33075;BME280;19433;51.292;6.868;2023-03-30T07:15:48;99422.34;;;14.16;71.25
33075;BME280;19433;51.292;6.868;2023-03-30T07:18:13;99423.59;;;14.08;71.80
33075;BME280;19433;51.292;6.868;2023-03-30T07:20:39;99415.03;;;13.93;72.14
33075;BME280;19433;51.292;6.868;2023-03-30T07:23:04;99421.34;;;13.88;73.03
33075;BME280;19433;51.292;6.868;2023-03-30T07:25:30;99425.22;;;13.87;73.28
33075;BME280;19433;51.292;6.868;2023-03-30T07:27:56;99438.84;;;13.89;73.24
33075;BME280;19433;51.292;6.868;2023-03-30T07:30:21;99433.34;;;13.77;73.85
33075;BME280;19433;51.292;6.868;2023-03-30T07:32:48;99438.91;;;13.77;74.15
33075;BME280;19433;51.292;6.868;2023-03-30T07:35:14;99446.81;;;13.68;74.36
33075;BME280;19433;51.292;6.868;2023-03-30T07:37:39;99436.38;;;13.59;75.09
33075;BME280;19433;51.292;6.868;2023-03-30T07:40:06;99446.81;;;13.68;75.17
33075;BME280;19433;51.292;6.868;2023-03-30T07:42:35;99445.91;;;13.80;74.57
33075;BME280;19433;51.292;6.868;2023-03-30T07:45:00;99448.41;;;13.81;74.36
33075;BME280;19433;51.292;6.868;2023-03-30T07:47:26;99426.72;;;13.78;74.61
33075;BME280;19433;51.292;6.868;2023-03-30T07:49:51;99455.25;;;13.73;74.76
33075;BME280;19433;51.292;6.868;2023-03-30T07:52:16;99450.56;;;13.62;75.39
33075;BME280;19433;51.292;6.868;2023-03-30T07:54:42;99462.34;;;13.53;75.75
33075;BME280;19433;51.292;6.868;2023-03-30T07:57:09;99477.06;;;13.53;75.06
33075;BME280;19433;51.292;6.868;2023-03-30T07:59:34;99469.75;;;13.35;74.95
33075;BME280;19433;51.292;6.868;2023-03-30T08:02:00;99479.34;;;13.28;75.56
33075;BME280;19433;51.292;6.868;2023-03-30T08:04:25;99476.69;;;13.21;76.15
33075;BME280;19433;51.292;6.868;2023-03-30T08:06:52;99485.00;;;13.21;77.29
33075;BME280;19433;51.292;6.868;2023-03-30T08:09:17;99490.78;;;13.20;77.12
33075;BME280;19433;51.292;6.868;2023-03-30T08:11:43;99486.69;;;13.22;77.24
33075;BME280;19433;51.292;6.868;2023-03-30T08:14:08;99486.69;;;13.22;77.30
33075;BME280;19433;51.292;6.868;2023-03-30T08:16:33;99486.09;;;13.20;77.98
33075;BME280;19433;51.292;6.868;2023-03-30T08:18:59;99479.84;;;13.01;78.76
33075;BME280;19433;51.292;6.868;2023-03-30T08:21:24;99498.88;;;13.10;80.02
33075;BME280;19433;51.292;6.868;2023-03-30T08:23:54;99499.84;;;13.03;80.26
33075;BME280;19433;51.292;6.868;2023-03-30T08:26:27;99490.69;;;13.15;80.21
33075;BME280;19433;51.292;6.868;2023-03-30T08:28:53;99491.72;;;13.37;79.59
33075;BME280;19433;51.292;6.868;2023-03-30T08:31:18;99506.28;;;13.72;78.71
33075;BME280;19433;51.292;6.868;2023-03-30T08:33:45;99504.06;;;13.58;79.32
33075;BME280;19433;51.292;6.868;2023-03-30T08:36:10;99504.13;;;13.75;78.96
33075;BME280;19433;51.292;6.868;2023-03-30T08:38:37;99516.19;;;13.68;79.63
33075;BME280;19433;51.292;6.868;2023-03-30T08:41:27;99508.53;;;13.59;79.52
33075;BME280;19433;51.292;6.868;2023-03-30T08:46:52;99515.00;;;14.93;73.19
33075;BME280;19433;51.292;6.868;2023-03-30T08:49:19;99520.66;;;15.86;69.87
33075;BME280;19433;51.292;6.868;2023-03-30T08:51:47;99530.47;;;16.84;63.65
33075;BME280;19433;51.292;6.868;2023-03-30T08:54:18;99529.53;;;17.10;63.13
33075;BME280;19433;51.292;6.868;2023-03-30T08:59:44;99518.53;;;20.62;47.47
33075;BME280;19433;51.292;6.868;2023-03-30T09:02:15;99523.84;;;19.81;49.32
33075;BME280;19433;51.292;6.868;2023-03-30T09:04:44;99515.63;;;20.39;49.12
33075;BME280;19433;51.292;6.868;2023-03-30T09:07:20;99516.00;;;20.22;46.69
33075;BME280;19433;51.292;6.868;2023-03-30T09:09:48;99518.72;;;19.13;51.00
33075;BME280;19433;51.292;6.868;2023-03-30T09:15:11;99516.00;;;16.23;61.67
33075;BME280;19433;51.292;6.868;2023-03-30T09:17:44;99507.88;;;15.41;65.79
33075;BME280;19433;51.292;6.868;2023-03-30T09:20:25;99512.28;;;14.98;68.52
33075;BME280;19433;51.292;6.868;2023-03-30T09:22:53;99515.19;;;14.70;69.61
33075;BME280;19433;51.292;6.868;2023-03-30T09:28:04;99528.56;;;14.06;75.00
33075;BME280;19433;51.292;6.868;2023-03-30T09:30:42;99528.97;;;13.41;79.46
33075;BME280;19433;51.292;6.868;2023-03-30T09:35:54;99536.91;;;12.51;83.89
33075;BME280;19433;51.292;6.868;2023-03-30T09:38:21;99542.19;;;12.52;83.86
33075;BME280;19433;51.292;6.868;2023-03-30T09:43:44;99537.13;;;13.88;78.37
33075;BME280;19433;51.292;6.868;2023-03-30T09:46:12;99546.97;;;14.57;72.52
33075;BME280;19433;51.292;6.868;2023-03-30T09:48:40;99549.00;;;14.00;74.88
33075;BME280;19433;51.292;6.868;2023-03-30T09:53:48;99560.47;;;13.00;78.91
33075;BME280;19433;51.292;6.868;2023-03-30T09:56:25;99565.31;;;12.58;81.78
33075;BME280;19433;51.292;6.868;2023-03-30T09:58:51;99572.06;;;12.50;83.22
33075;BME280;19433;51.292;6.868;2023-03-30T10:01:18;99562.63;;;12.40;83.93
33075;BME280;19433;51.292;6.868;2023-03-30T10:04:04;99574.28;;;12.18;84.97
33075;BME280;19433;51.292;6.868;2023-03-30T10:06:32;99573.53;;;12.11;86.09
33075;BME280;19433;51.292;6.868;2023-03-30T10:09:02;99565.84;;;12.13;85.83
33075;BME280;19433;51.292;6.868;2023-03-30T10:11:42;99582.44;;;12.13;86.63
33075;BME280;19433;51.292;6.868;2023-03-30T10:14:33;99597.06;;;12.20;86.40
33075;BME280;19433;51.292;6.868;2023-03-30T10:16:59;99573.31;;;12.13;87.14
33075;BME280;19433;51.292;6.868;2023-03-30T10:19:25;99586.56;;;12.22;87.14
33075;BME280;19433;51.292;6.868;2023-03-30T10:21:56;99593.94;;;12.40;86.79
33075;BME280;19433;51.292;6.868;2023-03-30T10:24:26;99591.81;;;12.54;86.37
33075;BME280;19433;51.292;6.868;2023-03-30T10:26:57;99590.03;;;12.71;86.35
33075;BME280;19433;51.292;6.868;2023-03-30T10:29:25;99576.53;;;12.75;86.48
33075;BME280;19433;51.292;6.868;2023-03-30T10:32:10;99591.00;;;12.77;86.86
33075;BME280;19433;51.292;6.868;2023-03-30T10:34:40;99591.97;;;12.94;85.67
33075;BME280;19433;51.292;6.868;2023-03-30T10:37:13;99603.44;;;12.97;85.57
33075;BME280;19433;51.292;6.868;2023-03-30T10:39:42;99574.84;;;13.09;84.83
33075;BME280;19433;51.292;6.868;2023-03-30T10:42:14;99595.28;;;13.54;82.92
33075;BME280;19433;51.292;6.868;2023-03-30T10:44:50;99600.16;;;14.77;77.36
33075;BME280;19433;51.292;6.868;2023-03-30T10:47:37;99596.19;;;15.29;74.22
33075;BME280;19433;51.292;6.868;2023-03-30T10:50:35;99604.47;;;15.62;72.50
33075;BME280;19433;51.292;6.868;2023-03-30T11:04:28;99636.72;;;21.34;48.64
33075;BME280;19433;51.292;6.868;2023-03-30T11:06:57;99618.22;;;22.04;47.16
33075;BME280;19433;51.292;6.868;2023-03-30T11:09:29;99624.63;;;22.90;44.10
33075;BME280;19433;51.292;6.868;2023-03-30T11:12:04;99630.91;;;24.20;40.30
33075;BME280;19433;51.292;6.868;2023-03-30T11:14:47;99640.22;;;21.73;44.50
33075;BME280;19433;51.292;6.868;2023-03-30T11:17:35;99625.47;;;22.10;44.66
33075;BME280;19433;51.292;6.868;2023-03-30T11:20:23;99621.19;;;21.89;45.01
33075;BME280;19433;51.292;6.868;2023-03-30T11:23:00;99622.38;;;22.68;42.47
33075;BME280;19433;51.292;6.868;2023-03-30T11:25:33;99626.69;;;22.23;43.26
33075;BME280;19433;51.292;6.868;2023-03-30T11:30:53;99619.06;;;20.01;48.78
33075;BME280;19433;51.292;6.868;2023-03-30T11:33:28;99615.06;;;18.87;51.59
33075;BME280;19433;51.292;6.868;2023-03-30T11:36:11;99622.06;;;16.92;58.20
33075;BME280;19433;51.292;6.868;2023-03-30T11:38:57;99612.13;;;16.21;62.77
33075;BME280;19433;51.292;6.868;2023-03-30T11:41:49;99609.00;;;15.68;64.94
33075;BME280;19433;51.292;6.868;2023-03-30T11:44:16;99606.16;;;15.25;67.15
33075;BME280;19433;51.292;6.868;2023-03-30T11:47:11;99599.94;;;15.56;66.86
33075;BME280;19433;51.292;6.868;2023-03-30T11:49:50;99602.53;;;15.85;65.42
33075;BME280;19433;51.292;6.868;2023-03-30T11:52:28;99603.56;;;16.86;62.17
33075;BME280;19433;51.292;6.868;2023-03-30T12:00:29;99605.78;;;15.38;66.43
33075;BME280;19433;51.292;6.868;2023-03-30T12:05:42;99592.28;;;14.41;73.55
33075;BME280;19433;51.292;6.868;2023-03-30T12:08:18;99594.00;;;13.85;80.41
33075;BME280;19433;51.292;6.868;2023-03-30T12:11:01;99595.69;;;13.11;96.71
33075;BME280;19433;51.292;6.868;2023-03-30T12:13:31;99585.47;;;12.23;100.00
33075;BME280;19433;51.292;6.868;2023-03-30T12:16:04;99577.47;;;11.74;100.00
33075;BME280;19433;51.292;6.868;2023-03-30T12:18:43;99577.84;;;11.29;100.00
33075;BME280;19433;51.292;6.868;2023-03-30T12:21:19;99603.63;;;11.05;100.00
33075;BME280;19433;51.292;6.868;2023-03-30T12:24:15;99608.38;;;10.98;100.00
33075;BME280;19433;51.292;6.868;2023-03-30T12:26:43;99593.59;;;11.28;100.00
33075;BME280;19433;51.292;6.868;2023-03-30T12:29:11;99591.03;;;12.23;100.00
33075;BME280;19433;51.292;6.868;2023-03-30T12:31:48;99580.53;;;12.79;100.00
33075;BME280;19433;51.292;6.868;2023-03-30T12:34:14;99586.41;;;12.71;100.00
33075;BME280;19433;51.292;6.868;2023-03-30T12:36:41;99600.88;;;12.61;100.00
33075;BME280;19433;51.292;6.868;2023-03-30T12:39:17;99614.41;;;12.27;100.00
33075;BME280;19433;51.292;6.868;2023-03-30T12:41:48;99611.19;;;12.01;100.00
33075;BME280;19433;51.292;6.868;2023-03-30T12:44:48;99613.38;;;11.80;100.00
33075;BME280;19433;51.292;6.868;2023-03-30T12:48:21;99610.13;;;11.65;100.00
33075;BME280;19433;51.292;6.868;2023-03-30T12:50:37;99606.75;;;11.63;100.00
33075;BME280;19433;51.292;6.868;2023-03-30T12:53:22;99610.03;;;11.42;100.00
33075;BME280;19433;51.292;6.868;2023-03-30T12:56:09;99618.13;;;11.18;100.00
33075;BME280;19433;51.292;6.868;2023-03-30T13:01:32;99618.97;;;11.01;100.00
33075;BME280;19433;51.292;6.868;2023-03-30T13:04:15;99616.81;;;11.03;100.00
33075;BME280;19433;51.292;6.868;2023-03-30T13:06:51;99616.78;;;11.27;100.00
33075;BME280;19433;51.292;6.868;2023-03-30T13:24:57;99610.19;;;16.48;81.75
33075;BME280;19433;51.292;6.868;2023-03-30T13:27:26;99606.41;;;18.78;70.31
33075;BME280;19433;51.292;6.868;2023-03-30T13:29:57;99597.34;;;19.67;64.97
33075;BME280;19433;51.292;6.868;2023-03-30T13:43:24;99577.06;;;15.54;81.47
33075;BME280;19433;51.292;6.868;2023-03-30T13:46:00;99569.28;;;16.27;76.86
33075;BME280;19433;51.292;6.868;2023-03-30T13:48:55;99584.06;;;16.00;76.11
33075;BME280;19433;51.292;6.868;2023-03-30T13:51:26;99575.13;;;15.76;76.25
33075;BME280;19433;51.292;6.868;2023-03-30T13:53:55;99576.34;;;15.03;72.64
33075;BME280;19433;51.292;6.868;2023-03-30T13:56:22;99573.16;;;14.95;74.11
33075;BME280;19433;51.292;6.868;2023-03-30T13:59:03;99563.53;;;15.63;68.83
33075;BME280;19433;51.292;6.868;2023-03-30T14:01:31;99576.47;;;16.81;66.43
33075;BME280;19433;51.292;6.868;2023-03-30T14:03:58;99581.84;;;17.87;60.68
33075;BME280;19433;51.292;6.868;2023-03-30T14:06:28;99582.56;;;18.40;58.30
33075;BME280;19433;51.292;6.868;2023-03-30T14:11:59;99573.00;;;18.21;59.35
33075;BME280;19433;51.292;6.868;2023-03-30T14:14:41;99588.72;;;18.42;58.48
33075;BME280;19433;51.292;6.868;2023-03-30T14:17:30;99585.84;;;18.12;59.19
33075;BME280;19433;51.292;6.868;2023-03-30T14:22:38;99590.28;;;17.40;57.69
33075;BME280;19433;51.292;6.868;2023-03-30T14:25:20;99592.97;;;17.67;57.99
33075;BME280;19433;51.292;6.868;2023-03-30T14:27:46;99597.53;;;16.94;59.14
33075;BME280;19433;51.292;6.868;2023-03-30T14:30:20;99590.97;;;15.98;62.56
33075;BME280;19433;51.292;6.868;2023-03-30T14:32:46;99579.78;;;15.93;63.46
33075;BME280;19433;51.292;6.868;2023-03-30T14:35:18;99585.97;;;15.73;66.18
33075;BME280;19433;51.292;6.868;2023-03-30T14:37:43;99573.31;;;15.87;67.14
33075;BME280;19433;51.292;6.868;2023-03-30T14:40:18;99571.31;;;15.82;68.79
33075;BME280;19433;51.292;6.868;2023-03-30T14:42:45;99575.84;;;15.89;68.71
33075;BME280;19433;51.292;6.868;2023-03-30T14:45:15;99566.19;;;16.55;68.27
33075;BME280;19433;51.292;6.868;2023-03-30T14:47:42;99575.81;;;16.69;62.47
33075;BME280;19433;51.292;6.868;2023-03-30T14:50:13;99583.38;;;15.66;66.55
33075;BME280;19433;51.292;6.868;2023-03-30T14:52:45;99563.28;;;15.64;66.63
33075;BME280;19433;51.292;6.868;2023-03-30T14:55:17;99578.16;;;15.75;67.05
33075;BME280;19433;51.292;6.868;2023-03-30T14:57:45;99582.06;;;16.49;64.15
33075;BME280;19433;51.292;6.868;2023-03-30T15:00:17;99575.50;;;17.45;61.47
33075;BME280;19433;51.292;6.868;2023-03-30T15:02:52;99584.50;;;17.10;58.08